createdAt,value
2023-02-09T00:01:20.155Z,-1.84
2023-02-09T00:03:48.745Z,-1.85
2023-02-09T00:06:19.411Z,-1.93
2023-02-09T00:08:47.331Z,-1.93
2023-02-09T00:11:50.389Z,-1.89
2023-02-09T00:14:21.979Z,-1.86
2023-02-09T00:16:51.303Z,-1.91
2023-02-09T00:19:20.300Z,-1.91
2023-02-09T00:21:49.012Z,-1.89
2023-02-09T00:24:16.838Z,-1.86
2023-02-09T00:26:44.920Z,-1.80
2023-02-09T00:29:13.270Z,-1.82
2023-02-09T00:31:41.453Z,-1.80
2023-02-09T00:34:10.500Z,-1.77
2023-02-09T00:36:38.304Z,-1.72
2023-02-09T00:39:05.995Z,-1.71
2023-02-09T00:41:52.499Z,-1.67
2023-02-09T00:44:20.405Z,-1.66
2023-02-09T00:46:49.263Z,-1.64
2023-02-09T00:49:17.200Z,-1.63
2023-02-09T00:51:45.323Z,-1.63
2023-02-09T00:54:14.012Z,-1.63
2023-02-09T00:56:41.632Z,-1.64
2023-02-09T00:59:09.335Z,-1.69
2023-02-09T01:01:37.247Z,-1.72
2023-02-09T01:04:05.781Z,-1.74
2023-02-09T01:06:33.624Z,-1.79
2023-02-09T01:09:02.481Z,-1.85
2023-02-09T01:11:30.971Z,-1.88
2023-02-09T01:14:01.392Z,-1.93
2023-02-09T01:16:32.704Z,-1.99
2023-02-09T01:19:02.433Z,-2.03
2023-02-09T01:21:31.611Z,-2.07
2023-02-09T01:23:59.660Z,-2.14
2023-02-09T01:26:27.405Z,-2.23
2023-02-09T01:28:55.223Z,-2.31
2023-02-09T01:31:29.544Z,-2.34
2023-02-09T01:33:58.995Z,-2.42
2023-02-09T01:36:27.845Z,-2.43
2023-02-09T01:38:57.693Z,-2.43
2023-02-09T01:41:26.087Z,-2.46
2023-02-09T01:44:00.471Z,-2.50
2023-02-09T01:46:31.047Z,-2.52
2023-02-09T01:49:05.007Z,-2.64
2023-02-09T01:51:37.706Z,-2.76
2023-02-09T01:54:13.438Z,-2.88
2023-02-09T01:56:44.964Z,-2.92
2023-02-09T01:59:14.637Z,-3.05
2023-02-09T02:01:43.133Z,-3.14
2023-02-09T02:04:11.569Z,-3.18
2023-02-09T02:06:40.099Z,-3.31
2023-02-09T02:09:14.748Z,-3.42
2023-02-09T02:11:45.951Z,-3.52
2023-02-09T02:14:39.197Z,-3.56
2023-02-09T02:17:28.092Z,-3.57
2023-02-09T02:20:23.539Z,-3.58
2023-02-09T02:23:08.617Z,-3.60
2023-02-09T02:26:20.614Z,-3.60
2023-02-09T02:29:25.406Z,-3.52
2023-02-09T02:32:19.196Z,-3.47
2023-02-09T02:34:55.678Z,-3.43
2023-02-09T02:38:08.479Z,-3.40
2023-02-09T02:40:52.135Z,-3.51
2023-02-09T02:43:42.697Z,-3.59
2023-02-09T02:46:16.553Z,-3.62
2023-02-09T02:48:56.305Z,-3.67
2023-02-09T02:51:29.515Z,-3.67
2023-02-09T02:54:04.296Z,-3.69
2023-02-09T02:56:40.082Z,-3.66
2023-02-09T02:59:13.671Z,-3.61
2023-02-09T03:01:47.373Z,-3.52
2023-02-09T03:04:17.319Z,-3.47
2023-02-09T03:06:45.081Z,-3.49
2023-02-09T03:09:12.798Z,-3.52
2023-02-09T03:11:48.241Z,-3.53
2023-02-09T03:20:42.337Z,-3.62
2023-02-09T03:23:22.061Z,-3.58
2023-02-09T03:25:53.439Z,-3.47
2023-02-09T03:28:27.737Z,-3.33
2023-02-09T03:30:56.495Z,-3.37
2023-02-09T03:33:27.652Z,-3.27
2023-02-09T03:35:59.088Z,-3.25
2023-02-09T03:38:27.094Z,-3.28
2023-02-09T03:40:55.703Z,-3.23
2023-02-09T03:43:43.584Z,-3.19
2023-02-09T03:46:11.326Z,-3.15
2023-02-09T03:48:39.311Z,-3.17
2023-02-09T03:51:08.011Z,-3.15
2023-02-09T03:53:37.567Z,-3.31
2023-02-09T03:56:05.838Z,-3.28
2023-02-09T03:58:33.520Z,-3.29
2023-02-09T04:01:11.776Z,-3.30
2023-02-09T04:03:40.988Z,-3.41
2023-02-09T04:06:11.198Z,-3.47
2023-02-09T04:08:39.247Z,-3.57
2023-02-09T04:11:07.067Z,-3.61
2023-02-09T04:13:34.859Z,-3.62
2023-02-09T04:16:02.779Z,-3.60
2023-02-09T04:18:30.468Z,-3.58
2023-02-09T04:20:58.412Z,-3.48
2023-02-09T04:23:26.110Z,-3.44
2023-02-09T04:25:53.768Z,-3.43
2023-02-09T04:28:21.491Z,-3.36
2023-02-09T04:30:56.831Z,-3.38
2023-02-09T04:33:26.036Z,-3.34
2023-02-09T04:35:54.145Z,-3.32
2023-02-09T04:38:23.111Z,-3.28
2023-02-09T04:40:52.819Z,-3.23
2023-02-09T04:43:21.115Z,-3.20
2023-02-09T04:45:49.422Z,-3.15
2023-02-09T04:48:19.737Z,-3.16
2023-02-09T04:50:47.807Z,-3.23
2023-02-09T04:53:16.549Z,-3.22
2023-02-09T04:55:46.221Z,-3.21
2023-02-09T04:58:35.414Z,-3.26
2023-02-09T05:01:03.780Z,-3.31
2023-02-09T05:03:31.990Z,-3.28
2023-02-09T05:06:03.816Z,-3.22
2023-02-09T05:08:32.211Z,-3.07
2023-02-09T05:11:00.322Z,-3.04
2023-02-09T05:13:28.441Z,-2.99
2023-02-09T05:15:56.415Z,-2.97
2023-02-09T05:18:26.138Z,-2.91
2023-02-09T05:20:53.931Z,-2.87
2023-02-09T05:23:21.655Z,-2.86
2023-02-09T05:25:49.532Z,-2.84
2023-02-09T05:28:17.280Z,-2.81
2023-02-09T05:30:45.386Z,-2.79
2023-02-09T05:33:13.464Z,-2.76
2023-02-09T05:35:41.238Z,-2.74
2023-02-09T05:38:09.008Z,-2.70
2023-02-09T05:40:36.753Z,-2.68
2023-02-09T05:43:04.664Z,-2.73
2023-02-09T05:45:32.303Z,-2.69
2023-02-09T05:48:00.098Z,-2.67
2023-02-09T05:50:27.876Z,-2.64
2023-02-09T05:52:55.613Z,-2.65
2023-02-09T05:55:23.358Z,-2.59
2023-02-09T05:57:51.055Z,-2.61
2023-02-09T06:00:18.957Z,-2.67
2023-02-09T06:02:46.746Z,-2.72
2023-02-09T06:05:14.556Z,-2.74
2023-02-09T06:07:42.265Z,-2.72
2023-02-09T06:10:10.332Z,-2.73
2023-02-09T06:12:39.284Z,-2.71
2023-02-09T06:15:08.234Z,-2.74
2023-02-09T06:17:35.932Z,-2.79
2023-02-09T06:20:04.178Z,-2.90
2023-02-09T06:22:32.845Z,-2.98
2023-02-09T06:25:00.636Z,-3.01
2023-02-09T06:27:28.424Z,-3.07
2023-02-09T06:29:56.227Z,-3.12
2023-02-09T06:32:24.001Z,-3.15
2023-02-09T06:34:51.869Z,-3.22
2023-02-09T06:37:19.602Z,-3.28
2023-02-09T06:39:47.328Z,-3.27
2023-02-09T06:42:15.136Z,-3.31
2023-02-09T06:44:42.824Z,-3.42
2023-02-09T06:47:10.573Z,-3.53
2023-02-09T06:49:38.349Z,-3.55
2023-02-09T06:52:06.692Z,-3.49
2023-02-09T06:54:34.601Z,-3.42
2023-02-09T06:57:02.325Z,-3.36
2023-02-09T06:59:30.089Z,-3.24
2023-02-09T07:01:57.955Z,-3.36
2023-02-09T07:04:25.714Z,-3.39
2023-02-09T07:06:53.440Z,-3.45
2023-02-09T07:09:21.078Z,-3.45
2023-02-09T07:11:48.829Z,-3.44
2023-02-09T07:14:16.525Z,-3.41
2023-02-09T07:16:44.239Z,-3.42
2023-02-09T07:19:12.118Z,-3.51
2023-02-09T07:21:39.861Z,-3.58
2023-02-09T07:24:07.784Z,-3.67
2023-02-09T07:26:35.651Z,-3.83
2023-02-09T07:29:03.317Z,-3.79
2023-02-09T07:31:31.748Z,-3.83
2023-02-09T07:33:59.610Z,-3.82
2023-02-09T07:36:27.351Z,-3.79
2023-02-09T07:38:56.483Z,-3.71
2023-02-09T07:41:28.932Z,-3.67
2023-02-09T07:43:57.664Z,-3.65
2023-02-09T07:46:26.699Z,-3.58
2023-02-09T07:48:54.499Z,-3.50
2023-02-09T07:51:26.590Z,-3.47
2023-02-09T07:53:54.812Z,-3.40
2023-02-09T07:56:23.791Z,-3.38
2023-02-09T07:58:51.838Z,-3.36
2023-02-09T08:01:20.959Z,-3.39
2023-02-09T08:03:50.730Z,-3.28
2023-02-09T08:06:42.518Z,-3.27
2023-02-09T08:09:11.775Z,-3.27
2023-02-09T08:11:45.985Z,-3.25
2023-02-09T08:14:44.167Z,-3.26
2023-02-09T08:17:22.237Z,-3.18
2023-02-09T08:20:05.812Z,-3.19
2023-02-09T08:22:39.948Z,-3.17
2023-02-09T08:25:08.420Z,-3.17
2023-02-09T08:27:38.579Z,-3.14
2023-02-09T08:30:06.761Z,-3.09
2023-02-09T08:32:34.503Z,-3.03
2023-02-09T08:35:02.208Z,-2.98
2023-02-09T08:37:30.272Z,-3.00
2023-02-09T08:39:58.457Z,-2.91
2023-02-09T08:42:26.296Z,-2.83
2023-02-09T08:44:53.981Z,-2.78
2023-02-09T08:47:21.633Z,-2.72
2023-02-09T08:49:49.977Z,-2.67
2023-02-09T08:52:18.452Z,-2.63
2023-02-09T08:54:47.553Z,-2.59
2023-02-09T08:57:15.320Z,-2.53
2023-02-09T08:59:43.039Z,-2.48
2023-02-09T09:02:10.885Z,-2.44
2023-02-09T09:04:38.676Z,-2.45
2023-02-09T09:07:06.566Z,-2.43
2023-02-09T09:09:34.362Z,-2.40
2023-02-09T09:12:02.267Z,-2.35
2023-02-09T09:14:30.037Z,-2.28
2023-02-09T09:16:59.520Z,-2.23
2023-02-09T09:19:29.672Z,-2.15
2023-02-09T09:22:04.373Z,-2.08
2023-02-09T09:24:32.838Z,-2.06
2023-02-09T09:27:00.525Z,-2.01
2023-02-09T09:29:28.254Z,-1.97
2023-02-09T09:31:56.191Z,-1.90
2023-02-09T09:34:23.952Z,-1.78
2023-02-09T09:36:51.731Z,-1.71
2023-02-09T09:39:20.074Z,-1.62
2023-02-09T09:41:51.307Z,-1.63
2023-02-09T09:44:53.010Z,-1.52
2023-02-09T09:47:34.257Z,-1.43
2023-02-09T09:50:02.006Z,-1.34
2023-02-09T09:52:37.841Z,-1.27
2023-02-09T09:55:09.428Z,-1.20
2023-02-09T09:57:42.958Z,-1.11
2023-02-09T10:00:25.474Z,-1.06
2023-02-09T10:02:53.708Z,-0.96
2023-02-09T10:05:30.787Z,-0.87
2023-02-09T10:08:11.843Z,-0.76
2023-02-09T10:10:44.878Z,-0.64
2023-02-09T10:13:45.492Z,-0.55
2023-02-09T10:16:19.446Z,-0.45
2023-02-09T10:18:55.437Z,-0.33
2023-02-09T10:21:25.950Z,-0.27
2023-02-09T10:24:02.668Z,-0.20
2023-02-09T10:26:33.500Z,-0.20
2023-02-09T10:29:14.476Z,-0.16
2023-02-09T10:31:52.117Z,-0.13
2023-02-09T10:34:24.766Z,-0.05
2023-02-09T10:36:52.532Z,-0.03
2023-02-09T10:39:29.770Z,0.02
2023-02-09T10:42:02.506Z,0.09
2023-02-09T10:44:37.569Z,0.18
2023-02-09T10:47:28.342Z,0.20
2023-02-09T10:50:14.739Z,0.30
2023-02-09T10:52:59.404Z,0.40
2023-02-09T10:55:42.759Z,0.47
2023-02-09T10:58:10.470Z,0.54
2023-02-09T11:01:07.924Z,0.63
2023-02-09T11:03:37.103Z,0.68
2023-02-09T11:06:16.817Z,0.77
2023-02-09T11:08:47.304Z,0.88
2023-02-09T11:11:34.249Z,0.91
2023-02-09T11:14:02.527Z,1.00
2023-02-09T11:16:45.696Z,1.13
2023-02-09T11:19:27.488Z,1.23
2023-02-09T11:22:16.197Z,1.37
2023-02-09T11:25:01.702Z,1.47
2023-02-09T11:27:45.155Z,1.56
2023-02-09T11:30:12.762Z,1.69
2023-02-09T11:32:51.321Z,1.80
2023-02-09T11:35:20.409Z,1.85
2023-02-09T11:38:00.172Z,1.91
2023-02-09T11:40:59.828Z,2.02
2023-02-09T11:43:42.296Z,2.15
2023-02-09T11:46:22.140Z,2.21
2023-02-09T11:49:19.034Z,2.20
2023-02-09T11:51:49.243Z,2.25
2023-02-09T11:54:24.167Z,2.35
2023-02-09T11:56:56.970Z,2.41
2023-02-09T11:59:34.130Z,2.43
2023-02-09T12:02:29.540Z,2.49
2023-02-09T12:05:02.123Z,2.53
2023-02-09T12:07:33.310Z,2.61
2023-02-09T12:10:25.844Z,2.63
2023-02-09T12:13:08.349Z,2.63
2023-02-09T12:15:58.686Z,2.69
2023-02-09T12:18:30.044Z,2.70
2023-02-09T12:21:08.469Z,2.69
2023-02-09T12:23:40.382Z,2.68
2023-02-09T12:26:14.310Z,2.66
2023-02-09T12:28:47.499Z,2.63
2023-02-09T12:31:23.474Z,2.63
2023-02-09T12:34:01.621Z,2.61
2023-02-09T12:36:32.710Z,2.65
2023-02-09T12:39:24.196Z,2.64
2023-02-09T12:41:52.051Z,2.66
2023-02-09T12:44:20.709Z,2.65
2023-02-09T12:46:57.061Z,2.70
2023-02-09T12:49:30.660Z,2.74
2023-02-09T12:52:11.495Z,2.78
2023-02-09T12:54:59.502Z,2.83
2023-02-09T12:57:27.271Z,2.86
2023-02-09T12:59:56.428Z,2.87
2023-02-09T13:02:39.333Z,2.88
2023-02-09T13:05:30.100Z,2.91
2023-02-09T13:08:06.926Z,2.91
2023-02-09T13:11:22.223Z,2.95
2023-02-09T13:14:05.260Z,2.98
2023-02-09T13:16:54.755Z,3.01
2023-02-09T13:19:36.450Z,3.04
2023-02-09T13:22:41.017Z,3.03
2023-02-09T13:25:27.999Z,3.05
2023-02-09T13:27:55.842Z,3.08
2023-02-09T13:30:32.049Z,3.10
2023-02-09T13:33:19.039Z,3.14
2023-02-09T13:36:02.158Z,3.10
2023-02-09T13:38:34.013Z,3.13
2023-02-09T13:41:02.117Z,3.15
2023-02-09T13:43:32.886Z,3.19
2023-02-09T13:46:03.390Z,3.20
2023-02-09T13:48:37.727Z,3.19
2023-02-09T13:51:17.584Z,3.18
2023-02-09T13:54:03.158Z,3.14
2023-02-09T13:56:33.515Z,3.12
2023-02-09T13:59:02.234Z,3.07
2023-02-09T14:01:34.857Z,3.06
2023-02-09T14:04:14.380Z,3.05
2023-02-09T14:07:02.605Z,3.04
2023-02-09T14:09:45.068Z,3.05
2023-02-09T14:12:19.958Z,3.05
2023-02-09T14:15:15.302Z,3.04
2023-02-09T14:17:52.620Z,3.04
2023-02-09T14:20:24.363Z,3.06
2023-02-09T14:23:00.882Z,3.04
2023-02-09T14:25:31.093Z,3.05
2023-02-09T14:27:59.473Z,3.05
2023-02-09T14:30:37.299Z,3.04
2023-02-09T14:33:05.161Z,3.05
2023-02-09T14:35:39.906Z,3.07
2023-02-09T14:38:37.949Z,3.07
2023-02-09T14:41:31.767Z,3.06
2023-02-09T14:44:01.889Z,3.06
2023-02-09T14:46:30.360Z,3.00
2023-02-09T14:48:59.136Z,2.98
2023-02-09T14:51:28.732Z,2.97
2023-02-09T14:53:56.519Z,2.97
2023-02-09T14:56:31.575Z,2.95
2023-02-09T14:58:59.298Z,2.93
2023-02-09T15:01:27.068Z,2.89
2023-02-09T15:03:54.879Z,2.87
2023-02-09T15:06:23.209Z,2.86
2023-02-09T15:08:51.153Z,2.85
2023-02-09T15:11:42.830Z,2.83
2023-02-09T15:14:12.435Z,2.80
2023-02-09T15:16:40.195Z,2.77
2023-02-09T15:19:14.728Z,2.77
2023-02-09T15:21:42.390Z,2.75
2023-02-09T15:24:10.078Z,2.74
2023-02-09T15:26:38.384Z,2.71
2023-02-09T15:29:17.793Z,2.71
2023-02-09T15:31:45.555Z,2.68
2023-02-09T15:34:14.714Z,2.70
2023-02-09T15:36:43.535Z,2.73
2023-02-09T15:39:24.373Z,2.72
2023-02-09T15:42:10.899Z,2.69
2023-02-09T15:44:57.400Z,2.71
2023-02-09T15:47:43.516Z,2.73
2023-02-09T15:50:11.175Z,2.74
2023-02-09T15:52:38.936Z,2.77
2023-02-09T15:55:07.174Z,2.77
2023-02-09T15:57:34.884Z,2.76
2023-02-09T16:00:02.643Z,2.76
2023-02-09T16:02:30.434Z,2.76
2023-02-09T16:04:58.086Z,2.78
2023-02-09T16:07:27.451Z,2.79
2023-02-09T16:09:55.198Z,2.80
2023-02-09T16:12:22.969Z,2.77
2023-02-09T16:14:52.942Z,2.76
2023-02-09T16:17:20.970Z,2.77
2023-02-09T16:19:50.166Z,2.77
2023-02-09T16:22:18.143Z,2.75
2023-02-09T16:24:47.399Z,2.75
2023-02-09T16:27:25.466Z,2.74
2023-02-09T16:29:53.208Z,2.73
2023-02-09T16:32:24.108Z,2.70
2023-02-09T16:34:52.553Z,2.64
2023-02-09T16:37:30.078Z,2.65
2023-02-09T16:39:59.385Z,2.61
2023-02-09T16:42:27.132Z,2.60
2023-02-09T16:44:54.860Z,2.57
2023-02-09T16:47:27.141Z,2.53
2023-02-09T16:50:02.286Z,2.50
2023-02-09T16:52:31.378Z,2.48
2023-02-09T16:55:02.031Z,2.45
2023-02-09T16:57:30.402Z,2.43
2023-02-09T16:59:58.089Z,2.40
2023-02-09T17:02:44.825Z,2.35
2023-02-09T17:05:20.971Z,2.31
2023-02-09T17:07:55.332Z,2.27
2023-02-09T17:10:26.885Z,2.21
2023-02-09T17:12:54.730Z,2.17
2023-02-09T17:15:30.479Z,2.13
2023-02-09T17:18:07.380Z,2.08
2023-02-09T17:20:45.897Z,2.04
2023-02-09T17:23:22.877Z,2.00
2023-02-09T17:25:52.825Z,1.97
2023-02-09T17:28:20.802Z,1.92
2023-02-09T17:30:51.345Z,1.87
2023-02-09T17:33:27.353Z,1.85
2023-02-09T17:36:24.482Z,1.77
2023-02-09T17:38:46.174Z,1.75
2023-02-09T17:41:17.691Z,1.70
2023-02-09T17:43:45.855Z,1.62
2023-02-09T17:46:17.609Z,1.60
2023-02-09T17:48:46.806Z,1.52
2023-02-09T17:51:23.007Z,1.47
2023-02-09T17:53:50.733Z,1.42
2023-02-09T17:56:19.521Z,1.37
2023-02-09T17:58:48.115Z,1.31
2023-02-09T18:01:28.908Z,1.25
2023-02-09T18:03:59.564Z,1.18
2023-02-09T18:06:37.468Z,1.15
2023-02-09T18:09:08.356Z,1.11
2023-02-09T18:11:57.889Z,1.08
2023-02-09T18:14:27.444Z,1.05
2023-02-09T18:16:56.184Z,1.00
2023-02-09T18:19:25.265Z,0.95
2023-02-09T18:21:54.048Z,0.96
2023-02-09T18:24:23.769Z,0.92
2023-02-09T18:26:52.211Z,0.90
2023-02-09T18:29:30.267Z,0.88
2023-02-09T18:32:02.112Z,0.88
2023-02-09T18:34:30.353Z,0.86
2023-02-09T18:36:58.479Z,0.80
2023-02-09T18:39:26.366Z,0.80
2023-02-09T18:41:56.865Z,0.76
2023-02-09T18:44:29.638Z,0.74
2023-02-09T18:46:59.310Z,0.68
2023-02-09T18:49:27.372Z,0.66
2023-02-09T18:51:55.080Z,0.65
2023-02-09T18:54:22.977Z,0.65
2023-02-09T18:56:50.782Z,0.65
2023-02-09T18:59:19.194Z,0.64
2023-02-09T19:01:47.638Z,0.62
2023-02-09T19:04:15.338Z,0.60
2023-02-09T19:06:42.993Z,0.59
2023-02-09T19:09:10.742Z,0.59
2023-02-09T19:11:38.467Z,0.61
2023-02-09T19:14:24.752Z,0.61
2023-02-09T19:16:52.433Z,0.60
2023-02-09T19:19:20.981Z,0.60
2023-02-09T19:21:48.951Z,0.59
2023-02-09T19:24:16.828Z,0.61
2023-02-09T19:26:44.667Z,0.59
2023-02-09T19:29:12.343Z,0.54
2023-02-09T19:31:40.101Z,0.51
2023-02-09T19:34:07.890Z,0.48
2023-02-09T19:36:35.678Z,0.45
2023-02-09T19:39:03.527Z,0.45
2023-02-09T19:41:31.366Z,0.43
2023-02-09T19:43:59.393Z,0.46
2023-02-09T19:46:27.441Z,0.47
2023-02-09T19:48:55.110Z,0.47
2023-02-09T19:51:23.691Z,0.44
2023-02-09T19:53:51.899Z,0.43
2023-02-09T19:56:24.641Z,0.38
2023-02-09T19:58:52.894Z,0.38
2023-02-09T20:01:21.000Z,0.32
2023-02-09T20:03:53.427Z,0.28
2023-02-09T20:06:21.118Z,0.20
2023-02-09T20:08:49.217Z,0.09
2023-02-09T20:11:20.091Z,0.06
2023-02-09T20:13:53.380Z,-0.01
2023-02-09T20:16:26.272Z,-0.06
2023-02-09T20:18:55.081Z,-0.08
2023-02-09T20:21:24.378Z,-0.09
2023-02-09T20:23:56.738Z,-0.15
2023-02-09T20:26:30.128Z,-0.08
2023-02-09T20:28:58.779Z,-0.07
2023-02-09T20:31:29.165Z,-0.12
2023-02-09T20:33:57.511Z,-0.14
2023-02-09T20:36:25.997Z,-0.18
2023-02-09T20:38:54.061Z,-0.22
2023-02-09T20:41:22.177Z,-0.26
2023-02-09T20:44:08.663Z,-0.30
2023-02-09T20:46:55.053Z,-0.36
2023-02-09T20:49:25.257Z,-0.43
2023-02-09T20:51:53.000Z,-0.49
2023-02-09T20:54:21.169Z,-0.58
2023-02-09T20:56:48.960Z,-0.64
2023-02-09T20:59:17.080Z,-0.65
2023-02-09T21:01:45.212Z,-0.69
2023-02-09T21:04:12.969Z,-0.71
2023-02-09T21:06:41.018Z,-0.74
2023-02-09T21:09:11.940Z,-0.74
2023-02-09T21:11:39.817Z,-0.68
2023-02-09T21:14:07.600Z,-0.61
2023-02-09T21:16:37.722Z,-0.63
2023-02-09T21:19:05.864Z,-0.65
2023-02-09T21:21:33.624Z,-0.69
2023-02-09T21:24:01.646Z,-0.71
2023-02-09T21:26:31.201Z,-0.63
2023-02-09T21:28:59.550Z,-0.55
2023-02-09T21:31:29.502Z,-0.48
2023-02-09T21:33:57.406Z,-0.40
2023-02-09T21:36:25.227Z,-0.39
2023-02-09T21:38:52.936Z,-0.40
2023-02-09T21:41:42.279Z,-0.40
2023-02-09T21:44:16.699Z,-0.36
2023-02-09T21:46:44.497Z,-0.33
2023-02-09T21:49:13.641Z,-0.28
2023-02-09T21:51:43.025Z,-0.28
2023-02-09T21:54:16.186Z,-0.31
2023-02-09T21:56:44.377Z,-0.31
2023-02-09T21:59:12.077Z,-0.28
2023-02-09T22:01:40.575Z,-0.38
2023-02-09T22:04:08.361Z,-0.39
2023-02-09T22:06:36.180Z,-0.42
2023-02-09T22:09:04.891Z,-0.40
2023-02-09T22:11:32.599Z,-0.44
2023-02-09T22:14:00.460Z,-0.46
2023-02-09T22:16:28.333Z,-0.47
2023-02-09T22:18:56.111Z,-0.52
2023-02-09T22:21:23.905Z,-0.57
2023-02-09T22:23:54.043Z,-0.55
2023-02-09T22:26:22.001Z,-0.50
2023-02-09T22:28:49.939Z,-0.50
2023-02-09T22:31:20.424Z,-0.53
2023-02-09T22:33:49.115Z,-0.54
2023-02-09T22:36:19.350Z,-0.61
2023-02-09T22:38:47.725Z,-0.68
2023-02-09T22:41:24.126Z,-0.65
2023-02-09T22:44:01.879Z,-0.60
2023-02-09T22:46:39.121Z,-0.63
2023-02-09T22:49:13.216Z,-0.63
2023-02-09T22:51:40.975Z,-0.65
2023-02-09T22:54:08.611Z,-0.62
2023-02-09T22:56:36.590Z,-0.63
2023-02-09T22:59:04.384Z,-0.54
2023-02-09T23:01:32.912Z,-0.56
2023-02-09T23:04:00.707Z,-0.55
2023-02-09T23:06:31.041Z,-0.68
2023-02-09T23:09:04.949Z,-0.75
2023-02-09T23:11:33.094Z,-0.77
2023-02-09T23:14:10.522Z,-0.78
2023-02-09T23:16:40.136Z,-0.78
2023-02-09T23:19:10.058Z,-0.72
2023-02-09T23:21:40.371Z,-0.70
2023-02-09T23:24:09.145Z,-0.73
2023-02-09T23:26:37.942Z,-0.79
2023-02-09T23:29:08.634Z,-0.89
2023-02-09T23:31:37.353Z,-0.92
2023-02-09T23:34:05.828Z,-0.92
2023-02-09T23:36:35.557Z,-1.01
2023-02-09T23:39:06.483Z,-1.01
2023-02-09T23:41:35.283Z,-1.03
2023-02-09T23:44:04.131Z,-1.05
2023-02-09T23:46:31.881Z,-1.10
2023-02-09T23:48:59.960Z,-1.19
2023-02-09T23:51:34.012Z,-1.37
2023-02-09T23:54:03.772Z,-1.36
2023-02-09T23:56:37.912Z,-1.31
2023-02-09T23:59:07.916Z,-1.41
